^^
Station Historical Data
Daily Summary for September 8, 2017 Units:  English    Metric   Both
« Previous Day
Next Day »
Daily Weekly Monthly Yearly Custom
  High: Low: Average:
Temperature: 70.4 °F 53.0 °F 61.6 °F
Dew Point: 54.1 °F 49.6 °F 51.7 °F
Humidity: 92% 52% 71%
Wind Speed: 6.0mph 0.0mph 1.1mph
Wind Gust: 13.0mph - -
Wind- - SSW
Pressure: 30.19 in 30.01 in -
Precipitation: 0.00 in    
Historical Graphs
 
 
Tabular Data for September 8, 2017
Time Temperature Dew Point Pressure Wind Wind Speed Wind Gust Humidity Rainfall Rate (Hourly) Conditions
00:00 60.4 °F 52.1 °F 30.01 in SSW 2.0 mph 5.0 mph 74% 0.00 in RA
00:15 59.8 °F 52.2 °F 30.02 in South 2.0 mph 6.0 mph 76% 0.00 in CLR
00:30 59.0 °F 52.1 °F 30.02 in Calm   4.0 mph 78% 0.00 in CLR
00:45 58.2 °F 52.1 °F 30.03 in Calm   3.0 mph 80% 0.00 in CLR
01:00 57.9 °F 51.8 °F 30.03 in Calm   1.0 mph 80% 0.00 in CLR
01:15 57.8 °F 51.7 °F 30.03 in South 1.0 mph 2.0 mph 80% 0.00 in CLR
01:30 58.4 °F 51.2 °F 30.03 in SW 1.0 mph 5.0 mph 77% 0.00 in CLR
01:45 58.1 °F 51.3 °F 30.03 in Calm   3.0 mph 78% 0.00 in CLR
02:00 57.6 °F 51.1 °F 30.03 in Calm   2.0 mph 79% 0.00 in CLR
02:15 56.6 °F 51.2 °F 30.03 in Calm     82% 0.00 in FEW
02:30 56.1 °F 51.0 °F 30.04 in Calm     83% 0.00 in FEW
02:45 55.8 °F 50.7 °F 30.04 in Calm     83% 0.00 in FEW
03:00 55.1 °F 51.0 °F 30.04 in Calm   1.0 mph 86% 0.00 in FEW
03:15 55.0 °F 51.2 °F 30.05 in Calm   2.0 mph 87% 0.00 in CLR
03:30 55.0 °F 50.9 °F 30.05 in Calm   1.0 mph 86% 0.00 in CLR
03:45 54.7 °F 50.9 °F 30.04 in Calm   1.0 mph 87% 0.00 in CLR
04:00 54.1 °F 50.6 °F 30.05 in Calm     88% 0.00 in CLR
04:15 53.8 °F 50.9 °F 30.05 in Calm   1.0 mph 90% 0.00 in CLR
04:30 54.3 °F 50.8 °F 30.06 in Calm   1.0 mph 88% 0.00 in CLR
04:45 54.6 °F 50.8 °F 30.05 in Calm   1.0 mph 87% 0.00 in CLR
05:00 54.3 °F 50.8 °F 30.06 in Calm   1.0 mph 88% 0.00 in CLR
05:15 54.0 °F 50.8 °F 30.06 in Calm   1.0 mph 89% 0.00 in CLR
05:30 53.4 °F 50.8 °F 30.06 in Calm   1.0 mph 91% 0.00 in CLR
05:45 53.2 °F 50.9 °F 30.06 in Calm   1.0 mph 92% 0.00 in CLR
06:00 53.0 °F 50.7 °F 30.07 in Calm   1.0 mph 92% 0.00 in CLR
06:15 53.4 °F 51.2 °F 30.06 in Calm   2.0 mph 92% 0.00 in CLR
06:30 53.9 °F 51.3 °F 30.07 in Calm   4.0 mph 91% 0.00 in CLR
06:45 54.1 °F 51.2 °F 30.08 in Calm   4.0 mph 90% 0.00 in CLR
07:00 53.9 °F 51.0 °F 30.08 in Calm   1.0 mph 90% 0.00 in CLR
07:15 54.2 °F 51.6 °F 30.08 in Calm   2.0 mph 91% 0.00 in FEW
07:30 54.5 °F 51.9 °F 30.09 in Calm     91% 0.00 in FEW
07:45 54.9 °F 52.0 °F 30.09 in Calm   1.0 mph 90% 0.00 in FEW
08:00 55.7 °F 52.2 °F 30.09 in Calm   3.0 mph 88% 0.00 in FEW
08:15 56.2 °F 52.1 °F 30.09 in Calm   4.0 mph 86% 0.00 in FEW
08:30 57.2 °F 52.4 °F 30.09 in West 1.0 mph 6.0 mph 84% 0.00 in FEW
08:45 58.7 °F 53.2 °F 30.09 in SSW 3.0 mph 5.0 mph 82% 0.00 in FEW
09:00 59.9 °F 53.8 °F 30.09 in SSW 1.0 mph 5.0 mph 80% 0.00 in FEW
09:15 61.0 °F 53.4 °F 30.10 in SW 6.0 mph 9.0 mph 76% 0.00 in CLR
09:30 61.5 °F 53.9 °F 30.10 in SW 2.0 mph 7.0 mph 76% 0.00 in CLR
09:45 62.4 °F 54.0 °F 30.10 in SW 1.0 mph 9.0 mph 74% 0.00 in CLR
10:00 63.0 °F 53.9 °F 30.10 in WSW 2.0 mph 10.0 mph 72% 0.00 in CLR
10:15 64.5 °F 54.1 °F 30.10 in Calm   7.0 mph 69% 0.00 in FEW
10:30 65.9 °F 53.4 °F 30.10 in Calm   7.0 mph 64% 0.00 in FEW
10:45 66.0 °F 51.7 °F 30.10 in SW 3.0 mph 8.0 mph 60% 0.00 in FEW
11:00 66.9 °F 52.1 °F 30.10 in West 2.0 mph 9.0 mph 59% 0.00 in FEW
11:15 67.8 °F 52.5 °F 30.10 in SSW 2.0 mph 9.0 mph 58% 0.00 in FEW
11:30 68.1 °F 52.3 °F 30.09 in South 2.0 mph 13.0 mph 57% 0.00 in FEW
11:45 68.0 °F 51.8 °F 30.09 in WSW 1.0 mph 6.0 mph 56% 0.00 in FEW
12:00 68.5 °F 52.2 °F 30.09 in SSE 3.0 mph 8.0 mph 56% 0.00 in FEW
12:15 67.5 °F 52.2 °F 30.10 in SW 3.0 mph 9.0 mph 58% 0.00 in SCT
12:30 67.5 °F 52.2 °F 30.10 in South 1.0 mph 8.0 mph 58% 0.00 in SCT
12:45 67.9 °F 52.1 °F 30.10 in SSW 5.0 mph 12.0 mph 57% 0.00 in SCT
13:00 67.0 °F 51.7 °F 30.10 in SSW 1.0 mph 8.0 mph 58% 0.00 in SCT
13:15 67.2 °F 52.4 °F 30.10 in West 3.0 mph 9.0 mph 59% 0.00 in BKN
13:30 66.9 °F 53.0 °F 30.10 in West 1.0 mph 7.0 mph 61% 0.00 in BKN
13:45 68.3 °F 53.4 °F 30.10 in West 3.0 mph 8.0 mph 59% 0.00 in BKN
14:00 67.4 °F 52.6 °F 30.10 in West 2.0 mph 7.0 mph 59% 0.00 in BKN
14:15 67.2 °F 52.4 °F 30.10 in Calm   8.0 mph 59% 0.00 in BKN
14:30 67.7 °F 52.0 °F 30.10 in SSE 1.0 mph 8.0 mph 57% 0.00 in BKN
14:45 68.1 °F 51.8 °F 30.10 in WNW 2.0 mph 5.0 mph 56% 0.00 in BKN
15:00 69.4 °F 51.5 °F 30.09 in SE 3.0 mph 7.0 mph 53% 0.00 in BKN
15:15 69.0 °F 51.7 °F 30.10 in WSW 3.0 mph 7.0 mph 54% 0.00 in BKN
15:30 69.0 °F 50.6 °F 30.10 in West 3.0 mph 7.0 mph 52% 0.00 in BKN
15:45 68.6 °F 50.8 °F 30.10 in SSW 2.0 mph 8.0 mph 53% 0.00 in BKN
16:00 67.9 °F 51.6 °F 30.10 in SSW 1.0 mph 7.0 mph 56% 0.00 in BKN
16:15 67.7 °F 51.4 °F 30.10 in SW 1.0 mph 8.0 mph 56% 0.00 in SCT
16:30 68.3 °F 51.0 °F 30.10 in WSW 5.0 mph 9.0 mph 54% 0.00 in SCT
16:45 69.3 °F 51.9 °F 30.10 in West 2.0 mph 9.0 mph 54% 0.00 in SCT
17:00 69.8 °F 52.4 °F 30.10 in SW 1.0 mph 10.0 mph 54% 0.00 in SCT
17:15 70.4 °F 53.0 °F 30.10 in SW 2.0 mph 10.0 mph 54% 0.00 in FEW
17:30 68.3 °F 51.5 °F 30.10 in SW 2.0 mph 6.0 mph 55% 0.00 in FEW
17:45 67.7 °F 51.9 °F 30.11 in SSW 2.0 mph 8.0 mph 57% 0.00 in FEW
18:00 67.0 °F 51.7 °F 30.11 in SSW 1.0 mph 8.0 mph 58% 0.00 in FEW
18:15 66.5 °F 51.3 °F 30.11 in South 1.0 mph 7.0 mph 58% 0.00 in SCT
18:30 67.3 °F 52.0 °F 30.12 in SSW 2.0 mph 5.0 mph 58% 0.00 in SCT
18:45 67.4 °F 52.1 °F 30.11 in SW 2.0 mph 7.0 mph 58% 0.00 in SCT
19:00 66.2 °F 51.9 °F 30.12 in SSW 1.0 mph 6.0 mph 60% 0.00 in SCT
19:15 65.1 °F 51.7 °F 30.12 in SSW 1.0 mph 7.0 mph 62% 0.00 in SCT
19:30 64.7 °F 51.4 °F 30.13 in South 2.0 mph 6.0 mph 62% 0.00 in SCT
19:45 64.4 °F 51.5 °F 30.14 in South 2.0 mph 5.0 mph 63% 0.00 in SCT
20:00 64.1 °F 51.7 °F 30.14 in East 1.0 mph 5.0 mph 64% 0.00 in SCT
20:15 63.7 °F 51.7 °F 30.15 in SSE 1.0 mph 5.0 mph 65% 0.00 in SCT
20:30 63.0 °F 51.9 °F 30.16 in NNE 2.0 mph 5.0 mph 67% 0.00 in SCT
20:45 62.6 °F 51.9 °F 30.16 in Calm   6.0 mph 68% 0.00 in SCT
21:00 62.0 °F 51.8 °F 30.16 in Calm   4.0 mph 69% 0.00 in SCT
21:15 61.5 °F 51.2 °F 30.17 in East 1.0 mph 5.0 mph 69% 0.00 in FEW
21:30 60.8 °F 51.0 °F 30.17 in Calm   3.0 mph 70% 0.00 in FEW
21:45 60.1 °F 50.7 °F 30.17 in Calm   1.0 mph 71% 0.00 in FEW
22:00 59.0 °F 50.7 °F 30.17 in Calm     74% 0.00 in FEW
22:15 58.5 °F 49.8 °F 30.17 in NE 1.0 mph 3.0 mph 73% 0.00 in CLR
22:30 59.0 °F 49.6 °F 30.18 in Calm   5.0 mph 71% 0.00 in CLR
22:45 58.3 °F 49.7 °F 30.18 in Calm   1.0 mph 73% 0.00 in CLR
23:00 58.2 °F 49.9 °F 30.18 in Calm   2.0 mph 74% 0.00 in CLR
23:30 57.3 °F 50.5 °F 30.18 in Calm   1.0 mph 78% 0.00 in CLR
23:45 56.8 °F 50.4 °F 30.19 in Calm   1.0 mph 79% 0.00 in CLR
TarryTown NY Weather
Compliments of Weather Underground - 1.5 mb